Time;durP1;ratioP1;P1;durP2;ratioP2;P2;SDS_P1;SDS_P2;PMS_P1;PMS_P2;Temp;Humidity;BMP_temperature;BMP_pressure;BME280_temperature;BME280_humidity;BME280_pressure;Samples;Min_cycle;Max_cycle;Signal;HPM_P1;HPM_P2
2023/12/04 00:00:49;;;;;;;19.30;14.20;;;;;;;;;;4974439;28;20783;-46
2023/12/04 00:03:15;;;;;;;20.60;13.90;;;;;;;;;;4974295;28;20676;-46
2023/12/04 00:05:43;;;;;;;17.47;13.47;;;;;;;;;;4974429;28;20440;-46
2023/12/04 00:08:11;;;;;;;19.97;13.40;;;;;;;;;;4974285;28;20561;-46
2023/12/04 00:10:37;;;;;;;18.40;12.90;;;;;;;;;;4974085;28;20445;-46
2023/12/04 00:13:03;;;;;;;18.27;13.77;;;;;;;;;;4974157;28;20802;-48
2023/12/04 00:15:29;;;;;;;17.17;12.90;;;;;;;;;;4974232;28;20537;-46
2023/12/04 00:17:55;;;;;;;17.87;13.43;;;;;;;;;;4974268;28;20213;-46
2023/12/04 00:20:21;;;;;;;19.47;12.63;;;;;;;;;;4973823;28;20700;-45
2023/12/04 00:22:47;;;;;;;18.67;13.30;;;;;;;;;;4973673;28;20259;-46
2023/12/04 00:25:14;;;;;;;19.73;13.60;;;;;;;;;;4974014;28;20199;-46
2023/12/04 00:27:40;;;;;;;18.27;13.00;;;;;;;;;;4974172;28;20482;-46
2023/12/04 00:30:06;;;;;;;18.07;13.20;;;;;;;;;;4973871;28;20505;-46
2023/12/04 00:32:33;;;;;;;21.80;14.03;;;;;;;;;;4974037;28;20262;-46
2023/12/04 00:34:58;;;;;;;21.57;13.83;;;;;;;;;;4973589;28;20529;-46
2023/12/04 00:37:24;;;;;;;21.50;13.67;;;;;;;;;;4973762;28;20529;-46
2023/12/04 00:39:50;;;;;;;16.47;12.53;;;;;;;;;;4973744;28;20203;-46
2023/12/04 00:42:18;;;;;;;19.67;13.13;;;;;;;;;;4973682;28;20573;-46
2023/12/04 00:44:44;;;;;;;20.63;13.73;;;;;;;;;;4973883;28;20198;-46
2023/12/04 00:47:10;;;;;;;16.57;12.23;;;;;;;;;;4973307;28;20449;-46
2023/12/04 00:49:37;;;;;;;17.57;12.13;;;;;;;;;;4973657;28;20211;-46
2023/12/04 00:52:03;;;;;;;18.67;13.13;;;;;;;;;;4973557;28;20234;-46
2023/12/04 00:54:29;;;;;;;18.00;13.00;;;;;;;;;;4973425;28;20442;-46
2023/12/04 00:56:55;;;;;;;19.13;12.93;;;;;;;;;;4973709;28;20450;-46
2023/12/04 00:59:22;;;;;;;19.87;13.90;;;;;;;;;;4973105;28;20209;-46
2023/12/04 01:01:48;;;;;;;19.60;13.07;;;;;;;;;;4973436;28;20230;-46
2023/12/04 01:04:14;;;;;;;18.93;12.37;;;;;;;;;;4973357;28;20819;-46
2023/12/04 01:06:40;;;;;;;18.13;12.40;;;;;;;;;;4973424;28;20198;-46
2023/12/04 01:09:06;;;;;;;15.93;12.00;;;;;;;;;;4971238;28;20546;-46
2023/12/04 01:11:32;;;;;;;18.43;12.73;;;;;;;;;;4971597;28;20191;-46
2023/12/04 01:13:58;;;;;;;18.93;13.30;;;;;;;;;;4973293;28;20202;-46
2023/12/04 01:16:25;;;;;;;16.33;12.00;;;;;;;;;;4973243;28;20618;-46
2023/12/04 01:18:51;;;;;;;15.97;12.00;;;;;;;;;;4973181;28;20207;-45
2023/12/04 01:21:18;;;;;;;16.60;11.67;;;;;;;;;;4973105;28;20834;-45
2023/12/04 01:23:44;;;;;;;15.97;11.70;;;;;;;;;;4972942;28;20225;-46
2023/12/04 01:26:11;;;;;;;15.33;11.03;;;;;;;;;;4973071;28;20559;-45
2023/12/04 01:28:37;;;;;;;17.53;12.23;;;;;;;;;;4973069;28;20430;-46
2023/12/04 01:31:03;;;;;;;16.13;11.57;;;;;;;;;;4972959;28;20782;-46
2023/12/04 01:33:31;;;;;;;15.90;10.90;;;;;;;;;;4972828;28;20207;-45
2023/12/04 01:35:57;;;;;;;15.33;11.43;;;;;;;;;;4973154;28;20454;-46
2023/12/04 01:38:23;;;;;;;14.47;10.70;;;;;;;;;;4972789;28;20810;-46
2023/12/04 01:40:49;;;;;;;15.13;11.13;;;;;;;;;;4972701;28;21018;-46
2023/12/04 01:43:15;;;;;;;15.57;11.30;;;;;;;;;;4972681;28;20211;-46
2023/12/04 01:45:41;;;;;;;16.07;10.47;;;;;;;;;;4973030;28;20227;-46
2023/12/04 01:48:08;;;;;;;13.17;10.07;;;;;;;;;;4972714;28;20205;-46
2023/12/04 01:50:35;;;;;;;13.70;9.90;;;;;;;;;;4972658;28;20439;-46
2023/12/04 01:53:01;;;;;;;14.93;11.57;;;;;;;;;;4972602;28;20434;-46
2023/12/04 01:55:28;;;;;;;16.13;11.07;;;;;;;;;;4972615;28;20462;-46
2023/12/04 01:57:56;;;;;;;16.87;10.53;;;;;;;;;;4972729;28;20430;-46
2023/12/04 02:00:22;;;;;;;16.17;11.20;;;;;;;;;;4972247;28;21003;-45
2023/12/04 02:02:48;;;;;;;16.80;11.93;;;;;;;;;;4969336;28;20537;-46
2023/12/04 02:05:14;;;;;;;17.97;12.90;;;;;;;;;;4972201;28;20692;-46
2023/12/04 02:07:43;;;;;;;16.00;11.13;;;;;;;;;;4969358;28;20738;-46
2023/12/04 02:10:09;;;;;;;16.23;12.03;;;;;;;;;;4967670;28;20497;-46
2023/12/04 02:12:35;;;;;;;14.50;10.93;;;;;;;;;;4965860;28;20457;-45
2023/12/04 02:15:01;;;;;;;14.17;10.97;;;;;;;;;;4983469;28;20589;-46
2023/12/04 02:17:28;;;;;;;15.00;11.33;;;;;;;;;;4986780;28;21087;-46
2023/12/04 02:19:54;;;;;;;14.80;10.90;;;;;;;;;;4985193;28;20445;-45
2023/12/04 02:22:20;;;;;;;14.73;10.87;;;;;;;;;;4989985;28;20515;-45
2023/12/04 02:24:48;;;;;;;16.03;10.43;;;;;;;;;;4985082;28;20453;-46
2023/12/04 02:27:16;;;;;;;15.10;10.57;;;;;;;;;;4983168;28;20238;-46
2023/12/04 02:29:47;;;;;;;16.50;11.43;;;;;;;;;;4983338;28;20433;-46
2023/12/04 02:32:15;;;;;;;14.27;10.63;;;;;;;;;;4986688;28;20472;-45
2023/12/04 02:34:42;;;;;;;14.33;9.97;;;;;;;;;;4983409;28;20568;-46
2023/12/04 02:37:09;;;;;;;12.30;9.70;;;;;;;;;;4981496;28;20441;-46
2023/12/04 02:39:34;;;;;;;12.80;9.87;;;;;;;;;;4983175;28;20508;-45
2023/12/04 02:42:02;;;;;;;13.37;9.53;;;;;;;;;;4983059;28;20489;-46
2023/12/04 02:44:28;;;;;;;12.57;9.27;;;;;;;;;;4991526;28;20676;-46
2023/12/04 02:46:54;;;;;;;12.03;9.23;;;;;;;;;;4991853;28;20536;-46
2023/12/04 02:49:20;;;;;;;11.87;9.30;;;;;;;;;;4991517;28;20928;-46
2023/12/04 02:51:46;;;;;;;12.53;8.90;;;;;;;;;;4991574;28;20208;-46
2023/12/04 02:54:12;;;;;;;11.50;9.27;;;;;;;;;;4991511;28;20722;-46
2023/12/04 02:56:38;;;;;;;13.73;9.80;;;;;;;;;;4991758;28;20206;-46
2023/12/04 02:59:06;;;;;;;16.40;10.50;;;;;;;;;;4991469;28;20436;-46
2023/12/04 03:01:32;;;;;;;14.77;9.63;;;;;;;;;;4991536;28;20447;-46
2023/12/04 03:03:58;;;;;;;15.40;10.17;;;;;;;;;;4991580;28;20453;-46
2023/12/04 03:06:24;;;;;;;12.57;9.37;;;;;;;;;;4991483;28;20461;-46
2023/12/04 03:08:50;;;;;;;15.80;10.70;;;;;;;;;;4991348;28;20940;-46
2023/12/04 03:11:16;;;;;;;13.83;9.70;;;;;;;;;;4991315;28;20209;-46
2023/12/04 03:13:42;;;;;;;15.57;10.43;;;;;;;;;;4991562;28;20800;-46
2023/12/04 03:16:16;;;;;;;14.33;10.30;;;;;;;;;;4991713;28;20195;-46
2023/12/04 03:18:42;;;;;;;14.77;10.97;;;;;;;;;;4994690;28;20439;-46
2023/12/04 03:21:08;;;;;;;16.27;10.80;;;;;;;;;;4994835;28;20481;-46
2023/12/04 03:23:34;;;;;;;15.60;10.60;;;;;;;;;;4994561;28;20225;-45
2023/12/04 03:26:00;;;;;;;15.33;10.30;;;;;;;;;;4994451;28;20437;-46
2023/12/04 03:28:26;;;;;;;13.00;10.17;;;;;;;;;;4994973;28;20233;-45
2023/12/04 03:30:52;;;;;;;15.93;10.63;;;;;;;;;;4994755;28;20205;-45
2023/12/04 03:33:20;;;;;;;14.30;10.67;;;;;;;;;;4994623;28;20606;-45
2023/12/04 03:35:45;;;;;;;14.93;10.43;;;;;;;;;;4994503;28;20202;-45
2023/12/04 03:38:11;;;;;;;13.83;10.00;;;;;;;;;;4994486;28;20970;-46
2023/12/04 03:40:38;;;;;;;14.17;10.63;;;;;;;;;;4994442;28;20229;-46
2023/12/04 03:43:03;;;;;;;14.83;10.83;;;;;;;;;;4994343;28;20208;-46
2023/12/04 03:45:29;;;;;;;13.70;10.37;;;;;;;;;;4994174;28;20446;-46
2023/12/04 03:47:56;;;;;;;16.83;11.97;;;;;;;;;;4994484;28;20226;-46
2023/12/04 03:50:23;;;;;;;17.80;11.20;;;;;;;;;;4994335;28;20920;-46
2023/12/04 03:52:49;;;;;;;16.30;11.33;;;;;;;;;;4994089;28;20441;-46
2023/12/04 03:55:15;;;;;;;14.40;11.07;;;;;;;;;;4994161;28;20449;-45
2023/12/04 03:57:41;;;;;;;13.07;10.50;;;;;;;;;;4994250;28;20198;-46
2023/12/04 04:00:09;;;;;;;16.33;11.60;;;;;;;;;;4994046;28;20479;-46
2023/12/04 04:02:35;;;;;;;17.20;11.33;;;;;;;;;;4993969;28;20453;-45
2023/12/04 04:05:01;;;;;;;14.47;11.17;;;;;;;;;;4993856;28;20500;-46
2023/12/04 04:07:29;;;;;;;16.63;11.13;;;;;;;;;;4994060;28;20202;-46
2023/12/04 04:09:55;;;;;;;17.50;12.03;;;;;;;;;;4993955;28;20601;-45
2023/12/04 04:12:21;;;;;;;16.10;11.93;;;;;;;;;;4993725;28;20959;-46
2023/12/04 04:14:47;;;;;;;17.87;12.07;;;;;;;;;;4993798;28;20472;-46
2023/12/04 04:17:13;;;;;;;15.53;12.23;;;;;;;;;;4993869;28;20458;-45
2023/12/04 04:19:39;;;;;;;18.23;12.10;;;;;;;;;;4993965;28;20460;-46
2023/12/04 04:22:05;;;;;;;17.80;12.53;;;;;;;;;;4993439;28;20629;-46
2023/12/04 04:24:32;;;;;;;20.93;13.33;;;;;;;;;;4993429;28;20849;-45
2023/12/04 04:26:58;;;;;;;18.73;12.00;;;;;;;;;;4993521;28;20248;-45
2023/12/04 04:29:24;;;;;;;15.83;12.43;;;;;;;;;;4993237;28;20441;-46
2023/12/04 04:31:50;;;;;;;18.17;12.43;;;;;;;;;;4993401;28;20719;-46
2023/12/04 04:34:16;;;;;;;18.93;13.17;;;;;;;;;;4993251;28;20206;-46
2023/12/04 04:36:43;;;;;;;18.40;12.07;;;;;;;;;;4993434;28;20867;-46
2023/12/04 04:39:10;;;;;;;18.10;12.07;;;;;;;;;;4993446;28;20206;-46
2023/12/04 04:41:38;;;;;;;16.03;11.40;;;;;;;;;;4993475;28;20540;-45
2023/12/04 04:44:04;;;;;;;17.47;11.87;;;;;;;;;;4993389;28;20438;-46
2023/12/04 04:46:30;;;;;;;17.63;12.33;;;;;;;;;;4993143;28;20437;-46
2023/12/04 04:48:56;;;;;;;18.77;12.50;;;;;;;;;;4993390;28;20452;-46
2023/12/04 04:51:22;;;;;;;16.57;11.47;;;;;;;;;;4993166;28;20198;-46
2023/12/04 04:53:48;;;;;;;16.47;11.90;;;;;;;;;;4993172;28;20445;-46
2023/12/04 04:56:14;;;;;;;16.67;12.30;;;;;;;;;;4993001;28;20445;-46
2023/12/04 04:58:42;;;;;;;16.80;11.77;;;;;;;;;;4993170;28;20444;-46
2023/12/04 05:01:09;;;;;;;16.77;11.27;;;;;;;;;;4992989;28;20572;-46
2023/12/04 05:03:35;;;;;;;15.57;11.43;;;;;;;;;;4992757;28;20885;-46
2023/12/04 05:06:01;;;;;;;15.67;11.27;;;;;;;;;;4992806;28;20477;-46
2023/12/04 05:08:27;;;;;;;15.43;11.20;;;;;;;;;;4992757;28;20464;-46
2023/12/04 05:10:53;;;;;;;18.00;11.70;;;;;;;;;;4992948;28;20780;-46
2023/12/04 05:13:19;;;;;;;14.83;10.83;;;;;;;;;;4992555;28;20565;-45
2023/12/04 05:15:46;;;;;;;14.30;10.33;;;;;;;;;;4992672;28;20801;-46
2023/12/04 05:18:12;;;;;;;14.37;10.60;;;;;;;;;;4992621;28;20198;-45
2023/12/04 05:20:38;;;;;;;14.53;9.93;;;;;;;;;;4992614;28;20839;-46
2023/12/04 05:23:04;;;;;;;13.73;10.47;;;;;;;;;;4992722;28;20457;-45
2023/12/04 05:25:30;;;;;;;13.47;10.30;;;;;;;;;;4992385;28;20253;-46
2023/12/04 05:27:56;;;;;;;15.17;10.87;;;;;;;;;;4992876;28;20635;-46
2023/12/04 05:30:22;;;;;;;16.43;10.50;;;;;;;;;;4992407;28;20422;-46
2023/12/04 05:32:49;;;;;;;13.73;10.20;;;;;;;;;;4992595;28;20233;-46
2023/12/04 05:35:16;;;;;;;13.53;9.57;;;;;;;;;;4992256;28;20269;-46
2023/12/04 05:37:42;;;;;;;15.17;11.57;;;;;;;;;;4992358;28;20971;-46
2023/12/04 05:40:10;;;;;;;12.50;9.87;;;;;;;;;;4991564;28;20528;-46
2023/12/04 05:42:36;;;;;;;14.47;10.37;;;;;;;;;;4992323;28;20647;-46
2023/12/04 05:45:03;;;;;;;15.57;10.93;;;;;;;;;;4992243;28;20940;-46
2023/12/04 05:47:29;;;;;;;14.57;11.13;;;;;;;;;;4992027;28;20206;-46
2023/12/04 05:49:56;;;;;;;17.13;11.93;;;;;;;;;;4992215;28;20449;-46
2023/12/04 05:52:22;;;;;;;16.50;10.43;;;;;;;;;;4992103;28;20433;-46
2023/12/04 05:54:48;;;;;;;12.97;9.93;;;;;;;;;;4992125;28;20433;-45
2023/12/04 05:57:16;;;;;;;14.43;11.03;;;;;;;;;;4992144;28;20637;-45
2023/12/04 05:59:42;;;;;;;14.60;10.47;;;;;;;;;;4992125;28;20202;-46
2023/12/04 06:02:08;;;;;;;14.60;10.90;;;;;;;;;;4992048;28;20473;-46
2023/12/04 06:04:34;;;;;;;15.27;10.43;;;;;;;;;;4991753;28;20429;-46
2023/12/04 06:07:01;;;;;;;13.93;10.13;;;;;;;;;;4991796;28;20441;-46
2023/12/04 06:09:27;;;;;;;14.37;10.20;;;;;;;;;;4991922;28;20218;-46
2023/12/04 06:11:53;;;;;;;15.87;10.53;;;;;;;;;;4991987;28;20540;-46
2023/12/04 06:14:19;;;;;;;13.80;10.17;;;;;;;;;;4991591;28;20520;-46
2023/12/04 06:16:45;;;;;;;14.00;10.63;;;;;;;;;;4991483;28;20653;-46
2023/12/04 06:19:11;;;;;;;14.67;10.53;;;;;;;;;;4991932;28;20437;-46
2023/12/04 06:21:37;;;;;;;13.43;9.70;;;;;;;;;;4990923;28;20474;-46
2023/12/04 06:24:05;;;;;;;13.83;9.77;;;;;;;;;;4991456;28;20449;-46
2023/12/04 06:26:32;;;;;;;12.67;10.10;;;;;;;;;;4991400;28;20247;-46
2023/12/04 06:28:58;;;;;;;12.90;10.03;;;;;;;;;;4991489;28;20491;-46
2023/12/04 06:31:24;;;;;;;13.83;10.30;;;;;;;;;;4991637;28;20445;-46
2023/12/04 06:33:50;;;;;;;12.97;9.73;;;;;;;;;;4991559;28;20537;-46
2023/12/04 06:36:18;;;;;;;13.37;9.43;;;;;;;;;;4991886;28;20482;-46
2023/12/04 06:38:46;;;;;;;13.43;9.93;;;;;;;;;;4991401;28;20908;-46
2023/12/04 06:41:14;;;;;;;12.37;9.67;;;;;;;;;;4988209;28;20485;-46
2023/12/04 06:43:40;;;;;;;12.57;9.33;;;;;;;;;;4978151;28;20528;-46
2023/12/04 06:46:07;;;;;;;14.93;10.63;;;;;;;;;;4978207;28;20521;-46
2023/12/04 06:48:33;;;;;;;12.30;9.93;;;;;;;;;;4977983;28;20487;-45
2023/12/04 06:50:59;;;;;;;12.23;9.33;;;;;;;;;;4978548;28;20849;-46
2023/12/04 06:53:25;;;;;;;12.50;9.03;;;;;;;;;;4981568;28;20487;-46
2023/12/04 06:55:51;;;;;;;13.13;9.23;;;;;;;;;;4981588;28;20433;-46
2023/12/04 06:58:18;;;;;;;12.60;9.20;;;;;;;;;;4981619;28;20720;-46
2023/12/04 07:00:44;;;;;;;12.60;10.23;;;;;;;;;;4979966;28;20230;-46
2023/12/04 07:03:11;;;;;;;10.93;8.80;;;;;;;;;;4981629;28;20843;-45
2023/12/04 07:05:37;;;;;;;12.43;9.80;;;;;;;;;;4981446;28;20615;-46
2023/12/04 07:08:03;;;;;;;13.83;9.80;;;;;;;;;;4981543;28;20433;-46
2023/12/04 07:10:29;;;;;;;12.17;8.90;;;;;;;;;;4981492;28;20487;-46
2023/12/04 07:12:55;;;;;;;12.30;9.53;;;;;;;;;;4981572;28;20504;-45
2023/12/04 07:15:22;;;;;;;11.33;9.17;;;;;;;;;;4981149;28;20954;-46
2023/12/04 07:17:48;;;;;;;12.33;10.00;;;;;;;;;;4981401;28;20468;-46
2023/12/04 07:20:14;;;;;;;12.70;8.87;;;;;;;;;;4981151;28;20943;-46
2023/12/04 07:22:40;;;;;;;12.90;9.33;;;;;;;;;;4981169;28;20250;-46
2023/12/04 07:25:09;;;;;;;11.63;9.07;;;;;;;;;;4981198;28;20433;-46
2023/12/04 07:27:35;;;;;;;12.03;9.47;;;;;;;;;;4981163;28;20476;-46
2023/12/04 07:30:02;;;;;;;11.13;9.27;;;;;;;;;;4981105;28;20429;-46
2023/12/04 07:32:29;;;;;;;14.03;9.77;;;;;;;;;;4980873;28;20195;-46
2023/12/04 07:34:55;;;;;;;12.97;8.90;;;;;;;;;;4981102;28;20449;-46
2023/12/04 07:37:21;;;;;;;12.13;8.97;;;;;;;;;;4979092;28;20508;-46
2023/12/04 07:39:47;;;;;;;12.97;8.80;;;;;;;;;;4981149;28;20293;-46
2023/12/04 07:42:13;;;;;;;11.10;8.93;;;;;;;;;;4980901;28;20231;-45
2023/12/04 07:44:39;;;;;;;12.37;9.33;;;;;;;;;;4980578;28;20536;-46
2023/12/04 07:47:05;;;;;;;11.77;8.97;;;;;;;;;;4980024;28;20202;-45
2023/12/04 07:49:33;;;;;;;11.00;8.47;;;;;;;;;;4980673;28;20436;-45
2023/12/04 07:51:59;;;;;;;10.93;8.23;;;;;;;;;;4980692;28;20445;-46
2023/12/04 07:54:26;;;;;;;10.90;8.80;;;;;;;;;;4980550;28;20441;-46
2023/12/04 07:56:53;;;;;;;10.23;8.30;;;;;;;;;;4979708;28;20273;-46
2023/12/04 07:59:19;;;;;;;10.23;8.17;;;;;;;;;;4980548;28;20443;-46
2023/12/04 08:01:45;;;;;;;10.73;8.47;;;;;;;;;;4980349;28;20473;-46
2023/12/04 08:04:11;;;;;;;11.47;8.77;;;;;;;;;;4980112;28;20257;-46
2023/12/04 08:06:38;;;;;;;10.27;8.17;;;;;;;;;;4980403;28;20194;-46
2023/12/04 08:09:09;;;;;;;12.60;9.33;;;;;;;;;;4980484;28;20441;-46
2023/12/04 08:11:35;;;;;;;11.07;8.27;;;;;;;;;;4980373;28;20959;-46
2023/12/04 08:14:01;;;;;;;12.03;8.83;;;;;;;;;;4980074;28;20445;-46
2023/12/04 08:16:28;;;;;;;10.80;8.50;;;;;;;;;;4978144;28;20195;-46
2023/12/04 08:18:54;;;;;;;10.60;8.47;;;;;;;;;;4980423;28;20282;-46
2023/12/04 08:21:20;;;;;;;10.90;8.77;;;;;;;;;;4979908;28;21758;-46
2023/12/04 08:23:48;;;;;;;11.57;9.07;;;;;;;;;;4980105;28;20568;-46
2023/12/04 08:26:15;;;;;;;11.70;8.67;;;;;;;;;;4979862;28;20250;-46
2023/12/04 08:28:41;;;;;;;11.03;8.60;;;;;;;;;;4980014;28;20434;-45
2023/12/04 08:31:08;;;;;;;10.77;8.87;;;;;;;;;;4980128;28;20442;-45
2023/12/04 08:33:34;;;;;;;11.60;9.03;;;;;;;;;;4979679;28;20787;-45
2023/12/04 08:36:00;;;;;;;10.57;8.10;;;;;;;;;;4979709;28;20438;-45
2023/12/04 08:38:26;;;;;;;10.53;8.63;;;;;;;;;;4979795;28;20473;-46
2023/12/04 08:40:54;;;;;;;10.77;8.80;;;;;;;;;;4979640;28;20560;-45
2023/12/04 08:43:20;;;;;;;8.90;7.30;;;;;;;;;;4979550;28;20460;-45
2023/12/04 08:45:46;;;;;;;10.43;8.87;;;;;;;;;;4979606;28;20429;-46
2023/12/04 08:48:12;;;;;;;9.33;7.83;;;;;;;;;;4979643;28;20920;-45
2023/12/04 08:50:38;;;;;;;10.00;8.00;;;;;;;;;;4979163;28;20460;-46
2023/12/04 08:53:04;;;;;;;10.10;8.00;;;;;;;;;;4979380;28;20221;-46
2023/12/04 08:55:30;;;;;;;10.63;8.10;;;;;;;;;;4979504;28;20437;-46
2023/12/04 08:57:57;;;;;;;11.23;8.00;;;;;;;;;;4979643;28;20954;-45
2023/12/04 09:00:23;;;;;;;10.43;7.43;;;;;;;;;;4979374;28;20198;-44
2023/12/04 09:02:49;;;;;;;8.40;7.50;;;;;;;;;;4977815;28;20433;-45
2023/12/04 09:05:15;;;;;;;9.57;7.93;;;;;;;;;;4979314;28;20545;-45
2023/12/04 09:07:41;;;;;;;8.77;7.67;;;;;;;;;;4979310;28;20884;-45
2023/12/04 09:10:07;;;;;;;8.43;7.33;;;;;;;;;;4979415;28;20477;-46
2023/12/04 09:12:36;;;;;;;8.77;7.00;;;;;;;;;;4979183;28;20461;-45
2023/12/04 09:15:04;;;;;;;9.63;7.27;;;;;;;;;;4979121;28;20289;-46
2023/12/04 09:17:30;;;;;;;9.33;7.50;;;;;;;;;;4978808;28;20441;-45
2023/12/04 09:19:56;;;;;;;10.77;8.10;;;;;;;;;;4989298;28;20449;-45
2023/12/04 09:22:22;;;;;;;11.13;8.40;;;;;;;;;;4992037;28;20481;-45
2023/12/04 09:24:48;;;;;;;10.00;8.57;;;;;;;;;;4992067;28;20451;-45
2023/12/04 09:27:14;;;;;;;10.17;8.03;;;;;;;;;;4992126;28;20295;-45
2023/12/04 09:29:41;;;;;;;10.77;8.27;;;;;;;;;;4992400;28;20448;-45
2023/12/04 09:32:08;;;;;;;11.77;8.37;;;;;;;;;;4992456;28;20547;-47
2023/12/04 09:34:34;;;;;;;10.43;7.90;;;;;;;;;;4992203;28;20433;-45
2023/12/04 09:37:00;;;;;;;10.43;8.10;;;;;;;;;;4990595;28;20450;-45
2023/12/04 09:39:26;;;;;;;8.80;7.90;;;;;;;;;;4992362;28;20194;-45
2023/12/04 09:41:52;;;;;;;8.30;7.13;;;;;;;;;;4992334;28;20768;-45
2023/12/04 09:44:19;;;;;;;10.07;7.77;;;;;;;;;;4992396;28;20208;-45
2023/12/04 09:46:46;;;;;;;10.03;7.57;;;;;;;;;;4992162;28;20445;-46
2023/12/04 09:49:13;;;;;;;11.00;7.77;;;;;;;;;;4992215;28;20484;-46
2023/12/04 09:51:39;;;;;;;11.03;8.10;;;;;;;;;;4992215;28;20457;-46
2023/12/04 09:54:05;;;;;;;10.50;7.83;;;;;;;;;;4992090;28;20437;-46
2023/12/04 09:56:33;;;;;;;9.37;7.53;;;;;;;;;;4991954;28;20625;-46
2023/12/04 09:58:59;;;;;;;9.13;7.50;;;;;;;;;;4991919;28;20445;-46
2023/12/04 10:01:26;;;;;;;9.17;7.30;;;;;;;;;;4991794;28;20976;-46
2023/12/04 10:03:52;;;;;;;9.67;7.17;;;;;;;;;;4991977;28;20525;-46
2023/12/04 10:06:20;;;;;;;13.57;8.17;;;;;;;;;;4991886;28;20552;-46
2023/12/04 10:08:46;;;;;;;11.10;8.10;;;;;;;;;;4991827;28;20558;-46
2023/12/04 10:11:13;;;;;;;10.53;8.03;;;;;;;;;;4992100;28;20544;-46
2023/12/04 10:13:41;;;;;;;9.00;6.93;;;;;;;;;;4991900;28;20442;-46
2023/12/04 10:16:07;;;;;;;8.73;6.57;;;;;;;;;;4992082;28;20442;-46
2023/12/04 10:18:34;;;;;;;7.40;6.60;;;;;;;;;;4992048;28;20808;-46
2023/12/04 10:21:02;;;;;;;8.30;7.17;;;;;;;;;;4991715;28;20520;-46
2023/12/04 10:23:38;;;;;;;9.70;7.40;;;;;;;;;;4991827;28;20556;-46
2023/12/04 10:26:05;;;;;;;8.63;7.10;;;;;;;;;;4992417;28;20498;-46
2023/12/04 10:28:31;;;;;;;10.60;7.40;;;;;;;;;;4993637;28;20433;-46
2023/12/04 10:30:57;;;;;;;9.67;6.93;;;;;;;;;;4993940;28;20483;-46
2023/12/04 10:33:27;;;;;;;8.83;7.20;;;;;;;;;;4995606;28;20202;-46
2023/12/04 10:35:53;;;;;;;8.53;6.90;;;;;;;;;;4995680;28;20445;-46
2023/12/04 10:38:19;;;;;;;8.33;6.87;;;;;;;;;;4995472;28;20437;-46
2023/12/04 10:40:46;;;;;;;7.83;6.87;;;;;;;;;;4993567;28;20452;-46
2023/12/04 10:43:15;;;;;;;8.83;7.53;;;;;;;;;;4995376;28;20782;-46
2023/12/04 10:45:41;;;;;;;9.73;7.60;;;;;;;;;;4995322;28;20484;-46
2023/12/04 10:48:08;;;;;;;9.37;7.23;;;;;;;;;;4993109;28;20897;-46
2023/12/04 10:50:35;;;;;;;9.33;7.77;;;;;;;;;;4994814;28;20434;-46
2023/12/04 10:53:02;;;;;;;8.27;6.93;;;;;;;;;;4994993;28;20822;-46
2023/12/04 10:55:28;;;;;;;8.67;7.07;;;;;;;;;;4995011;28;20866;-46
2023/12/04 10:57:55;;;;;;;9.00;7.60;;;;;;;;;;4995289;28;20935;-46
2023/12/04 11:00:22;;;;;;;9.50;7.63;;;;;;;;;;4994786;28;20220;-46
2023/12/04 11:02:48;;;;;;;7.70;6.90;;;;;;;;;;4994823;28;20485;-46
2023/12/04 11:05:17;;;;;;;8.73;7.23;;;;;;;;;;4994861;28;20536;-46
2023/12/04 11:07:45;;;;;;;8.83;7.33;;;;;;;;;;4994711;28;20445;-46
2023/12/04 11:10:11;;;;;;;8.03;7.03;;;;;;;;;;4994956;28;20434;-46
2023/12/04 11:12:40;;;;;;;8.90;7.53;;;;;;;;;;4994653;28;20848;-46
2023/12/04 11:15:09;;;;;;;8.77;7.33;;;;;;;;;;4994763;28;20483;-46
2023/12/04 11:17:37;;;;;;;10.17;8.10;;;;;;;;;;4994833;28;20453;-46
2023/12/04 11:20:07;;;;;;;11.63;8.37;;;;;;;;;;4995201;28;20449;-46
2023/12/04 11:22:37;;;;;;;9.13;7.47;;;;;;;;;;4992728;28;21033;-46
2023/12/04 11:25:05;;;;;;;10.13;8.50;;;;;;;;;;4983223;28;20438;-46
2023/12/04 11:27:31;;;;;;;11.80;8.07;;;;;;;;;;4975111;28;20494;-46
2023/12/04 11:29:58;;;;;;;9.77;7.50;;;;;;;;;;4973932;28;20808;-53
2023/12/04 11:32:29;;;;;;;9.03;7.63;;;;;;;;;;4975093;28;20804;-47
2023/12/04 11:34:58;;;;;;;10.53;7.50;;;;;;;;;;4975283;28;20438;-46
2023/12/04 11:37:24;;;;;;;8.43;7.20;;;;;;;;;;4974317;28;20442;-46
2023/12/04 11:39:50;;;;;;;10.70;8.00;;;;;;;;;;4974772;28;20501;-46
2023/12/04 11:42:19;;;;;;;8.20;7.33;;;;;;;;;;4974720;28;20574;-46
2023/12/04 11:44:47;;;;;;;9.13;7.80;;;;;;;;;;4974787;28;20434;-46
2023/12/04 11:47:13;;;;;;;8.97;7.50;;;;;;;;;;4974947;28;20497;-46
2023/12/04 11:49:41;;;;;;;8.90;7.50;;;;;;;;;;4974951;28;20443;-46
2023/12/04 11:52:07;;;;;;;9.90;7.37;;;;;;;;;;4974860;28;20265;-46
2023/12/04 11:54:48;;;;;;;9.13;6.60;;;;;;;;;;4974484;28;20462;-46
2023/12/04 11:57:25;;;;;;;8.73;7.00;;;;;;;;;;4974418;28;20438;-46
2023/12/04 11:59:51;;;;;;;8.80;7.03;;;;;;;;;;4974626;28;20462;-46
2023/12/04 12:02:18;;;;;;;7.53;6.50;;;;;;;;;;4974442;28;20485;-46
2023/12/04 12:04:45;;;;;;;8.47;7.27;;;;;;;;;;4974468;28;20426;-46
2023/12/04 12:07:11;;;;;;;8.80;6.73;;;;;;;;;;4974452;28;20526;-46
2023/12/04 12:09:37;;;;;;;8.40;7.00;;;;;;;;;;4974575;28;20445;-46
2023/12/04 12:12:04;;;;;;;8.43;6.93;;;;;;;;;;4973071;28;20964;-46
2023/12/04 12:14:30;;;;;;;8.80;6.73;;;;;;;;;;4969092;28;20477;-46
2023/12/04 12:16:58;;;;;;;7.83;6.80;;;;;;;;;;4960653;28;20963;-46
2023/12/04 12:19:24;;;;;;;10.17;7.80;;;;;;;;;;4960764;28;20442;-45
2023/12/04 12:21:51;;;;;;;8.60;6.87;;;;;;;;;;4960628;28;20490;-46
2023/12/04 12:24:18;;;;;;;9.33;6.60;;;;;;;;;;4960550;28;20956;-46
2023/12/04 12:26:44;;;;;;;8.43;6.90;;;;;;;;;;4960469;28;20479;-45
2023/12/04 12:29:11;;;;;;;8.53;7.20;;;;;;;;;;4958981;28;20450;-46
2023/12/04 12:31:37;;;;;;;9.07;6.80;;;;;;;;;;4962154;28;20869;-46
2023/12/04 12:34:03;;;;;;;7.63;6.53;;;;;;;;;;4960517;28;20434;-46
2023/12/04 12:36:32;;;;;;;7.73;6.90;;;;;;;;;;4960165;28;20529;-46
2023/12/04 12:39:00;;;;;;;9.20;7.10;;;;;;;;;;4960443;28;20442;-45
2023/12/04 12:41:26;;;;;;;7.67;6.20;;;;;;;;;;4959291;28;20474;-46
2023/12/04 12:43:56;;;;;;;8.33;7.20;;;;;;;;;;4960358;28;20515;-46
2023/12/04 12:46:22;;;;;;;8.17;6.80;;;;;;;;;;4960566;28;20430;-51
2023/12/04 12:48:49;;;;;;;7.73;6.93;;;;;;;;;;4960225;28;20438;-46
2023/12/04 12:51:15;;;;;;;8.20;6.87;;;;;;;;;;4960068;28;20430;-45
2023/12/04 12:53:41;;;;;;;8.20;7.33;;;;;;;;;;4960103;28;20510;-46
2023/12/04 12:56:09;;;;;;;8.40;6.90;;;;;;;;;;4960232;28;20959;-50
2023/12/04 12:58:35;;;;;;;9.10;7.37;;;;;;;;;;4959841;28;20211;-45
2023/12/04 13:01:03;;;;;;;8.57;6.50;;;;;;;;;;4959935;28;20482;-46
2023/12/04 13:03:33;;;;;;;8.47;6.73;;;;;;;;;;4959907;28;20456;-46
2023/12/04 13:05:59;;;;;;;8.17;6.67;;;;;;;;;;4959814;28;20450;-45
2023/12/04 13:08:25;;;;;;;8.17;6.73;;;;;;;;;;4960077;28;20430;-46
2023/12/04 13:10:52;;;;;;;7.20;6.50;;;;;;;;;;4958142;28;20225;-46
2023/12/04 13:13:20;;;;;;;7.63;6.63;;;;;;;;;;4959553;28;20211;-46
2023/12/04 13:15:46;;;;;;;7.60;6.23;;;;;;;;;;4959721;28;20498;-46
2023/12/04 13:18:12;;;;;;;8.23;7.00;;;;;;;;;;4959948;28;20445;-46
2023/12/04 13:20:38;;;;;;;7.97;6.33;;;;;;;;;;4969761;28;20438;-46
2023/12/04 13:23:04;;;;;;;9.00;7.37;;;;;;;;;;4972911;28;20383;-46
2023/12/04 13:25:30;;;;;;;7.50;6.40;;;;;;;;;;4973009;28;20199;-46
2023/12/04 13:27:56;;;;;;;7.67;6.87;;;;;;;;;;4973078;28;20502;-46
2023/12/04 13:30:23;;;;;;;10.00;6.77;;;;;;;;;;4973093;28;20457;-46
2023/12/04 13:32:50;;;;;;;9.83;7.90;;;;;;;;;;4972851;28;20446;-46
2023/12/04 13:35:16;;;;;;;7.60;6.80;;;;;;;;;;4972698;28;20474;-46
2023/12/04 13:37:43;;;;;;;9.27;7.33;;;;;;;;;;4973056;28;20434;-46
2023/12/04 13:40:15;;;;;;;8.67;6.90;;;;;;;;;;4973216;28;20290;-46
2023/12/04 13:45:27;;;;;;;8.57;7.00;;;;;;;;;;4957728;28;20481;-46
2023/12/04 13:47:53;;;;;;;8.93;6.97;;;;;;;;;;4959122;28;20464;-46
2023/12/04 13:50:20;;;;;;;8.27;7.10;;;;;;;;;;4958967;28;20809;-46
2023/12/04 13:52:55;;;;;;;8.97;7.37;;;;;;;;;;4959158;28;20223;-47
2023/12/04 13:55:31;;;;;;;9.43;7.53;;;;;;;;;;4959181;28;20434;-46
2023/12/04 14:00:27;;;;;;;8.33;6.83;;;;;;;;;;4958790;28;20447;-46
2023/12/04 14:02:53;;;;;;;15.47;9.63;;;;;;;;;;4957112;28;20493;-46
2023/12/04 14:05:21;;;;;;;11.03;8.50;;;;;;;;;;4972045;28;20504;-46
2023/12/04 14:07:47;;;;;;;11.37;8.20;;;;;;;;;;4972682;28;20453;-47
2023/12/04 14:10:14;;;;;;;11.50;9.37;;;;;;;;;;4972476;28;20434;-48
2023/12/04 14:12:40;;;;;;;10.53;7.83;;;;;;;;;;4972565;28;20669;-47
2023/12/04 14:15:06;;;;;;;13.43;10.00;;;;;;;;;;4972350;28;20429;-48
2023/12/04 14:17:33;;;;;;;10.27;7.33;;;;;;;;;;4968439;28;20619;-47
2023/12/04 14:19:59;;;;;;;9.57;6.80;;;;;;;;;;4970603;28;20459;-47
2023/12/04 14:22:25;;;;;;;8.70;7.03;;;;;;;;;;4972407;28;20494;-46
2023/12/04 14:24:51;;;;;;;8.53;7.17;;;;;;;;;;4972372;28;20199;-46
2023/12/04 14:27:18;;;;;;;7.00;6.30;;;;;;;;;;4970833;28;20474;-46
2023/12/04 14:29:44;;;;;;;8.57;6.63;;;;;;;;;;4968850;28;20469;-46